Terminal Aerodrome Forecast
Issued by NWS

Home | Current Version | Previous Version | Text Only | Print | Product List | Glossary On
Versions: 1 2 3 4 5 6 7 8 9 10 11 12 13 14 15 16 17 18 19 20 21 22 23 24 25 26 27 28
000
FTUS44 KBMX 051404 AAB
TAFTOI
TAF AMD
KTOI 051404Z 0514/0612 22006KT P6SM VCSH SCT025 OVC150
     FM060000 29006KT P6SM BKN250
     FM060300 00000KT P6SM BKN250
     FM060900 00000KT 4SM BR SCT003 SCT250=

USA.gov is the U.S. government's official web portal to all federal, state and local government web resources and services.